North Providence, Rhode Island
Current Conditions -  °F | °C
As of 6:15 AM on Sunday 21 Dec 2014 (Local Time) from KSFZ Reporting Station
Overcast Overcast  
Wind Chill: 22°   Ceiling: 600
Heat Index: 30°   Visibility: 10mi
Dew Point: 25°   Wind: 9mph
Humidity: 80%   Direction: 360°N
Pressure: 30.25"   Gusts: NA
Location:  41.86°N, 71.48°W
Report Text: KSFZ 211115Z 36008KT 10SM OVC006 M01/M04 A3025 RMK AO1
Loading
Personal Weather Stations






























Interactive Weather Map New forecast layout! Learn more

10-Day Weather Forecast

Advertisements
Track Severe Weather on mobile